Vanetia, Texas
Current Conditions -  °F | °C
As of 4:35 AM on Saturday 22 Nov 2014 (Local Time) from KLHB Reporting Station
Overcast Overcast  
Wind Chill: 63°   Ceiling: 800
Heat Index: 63°   Visibility: 10mi
Dew Point: 61°   Wind: 8mph
Humidity: 93%   Direction: 120°ESE
Pressure: 30.07"   Gusts: NA
Location:  31.2206°N, 96.2362°W
Report Text: KLHB 221035Z AUTO 12007KT 10SM OVC008 17/16 A3007 RMK AO2 LTG DSNT NW T01720160
Loading
Personal Weather Stations






























Interactive Weather Map New forecast layout! Learn more

10-Day Weather Forecast

Advertisements
Track Severe Weather on mobile